Time;durP1;ratioP1;P1;durP2;ratioP2;P2;SDS_P1;SDS_P2;PMS_P1;PMS_P2;Temp;Humidity;BMP_temperature;BMP_pressure;BME280_temperature;BME280_humidity;BME280_pressure;Samples;Min_cycle;Max_cycle;Signal;HPM_P1;HPM_P2
2023/04/21 00:00:46;;;;;;;15.57;10.32;;;;;;;;;;5007199;28;20052;-68
2023/04/21 00:03:11;;;;;;;20.95;14.15;;;;;;;;;;5006009;28;20056;-69
2023/04/21 00:05:41;;;;;;;18.23;11.05;;;;;;;;;;5009066;28;20057;-68
2023/04/21 00:08:07;;;;;;;21.35;13.80;;;;;;;;;;5017783;28;20030;-69
2023/04/21 00:10:32;;;;;;;23.60;14.23;;;;;;;;;;5012560;28;20028;-69
2023/04/21 00:12:58;;;;;;;15.63;10.93;;;;;;;;;;5008018;28;20033;-69
2023/04/21 00:15:23;;;;;;;10.95;7.68;;;;;;;;;;5007713;28;20026;-68
2023/04/21 00:17:48;;;;;;;18.10;11.38;;;;;;;;;;5015566;28;20382;-68
2023/04/21 00:20:14;;;;;;;9.68;6.03;;;;;;;;;;5021944;28;20030;-68
2023/04/21 00:22:40;;;;;;;19.67;12.60;;;;;;;;;;5008745;28;20042;-68
2023/04/21 00:25:06;;;;;;;17.17;10.60;;;;;;;;;;5011266;28;20385;-68
2023/04/21 00:27:31;;;;;;;22.15;13.75;;;;;;;;;;5008377;28;20083;-68
2023/04/21 00:29:57;;;;;;;18.75;12.95;;;;;;;;;;5022870;28;20021;-68
2023/04/21 00:32:22;;;;;;;13.73;8.70;;;;;;;;;;5009387;28;20022;-68
2023/04/21 00:34:47;;;;;;;12.05;6.55;;;;;;;;;;5007667;28;20018;-68
2023/04/21 00:37:13;;;;;;;15.38;10.27;;;;;;;;;;5007765;28;20025;-68
2023/04/21 00:39:38;;;;;;;19.70;12.48;;;;;;;;;;5018283;28;20060;-68
2023/04/21 00:42:03;;;;;;;11.98;7.85;;;;;;;;;;5023419;28;20022;-68
2023/04/21 00:44:29;;;;;;;10.20;6.30;;;;;;;;;;5010013;28;20025;-68
2023/04/21 00:46:54;;;;;;;20.67;13.70;;;;;;;;;;5011113;28;20032;-68
2023/04/21 00:49:21;;;;;;;24.77;15.18;;;;;;;;;;5010562;28;20022;-68
2023/04/21 00:51:46;;;;;;;18.55;12.05;;;;;;;;;;5016850;28;20034;-68
2023/04/21 00:54:13;;;;;;;17.00;11.77;;;;;;;;;;5013210;28;20022;-68
2023/04/21 00:56:38;;;;;;;23.42;13.93;;;;;;;;;;5010183;28;20035;-68
2023/04/21 00:59:04;;;;;;;17.75;11.13;;;;;;;;;;5007036;28;20165;-68
2023/04/21 01:01:31;;;;;;;18.80;13.30;;;;;;;;;;4995663;28;20055;-68
2023/04/21 01:04:00;;;;;;;20.08;12.93;;;;;;;;;;5019241;28;20073;-67
2023/04/21 01:06:31;;;;;;;23.90;14.52;;;;;;;;;;5006730;28;20017;-68
2023/04/21 01:08:56;;;;;;;22.70;13.13;;;;;;;;;;5008211;28;20025;-68
2023/04/21 01:11:22;;;;;;;19.48;13.70;;;;;;;;;;5008879;28;20394;-68
2023/04/21 01:13:51;;;;;;;20.52;13.55;;;;;;;;;;5024640;28;20032;-68
2023/04/21 01:16:17;;;;;;;22.77;14.77;;;;;;;;;;5008447;28;20060;-68
2023/04/21 01:18:43;;;;;;;19.02;13.45;;;;;;;;;;5006808;28;20470;-68
2023/04/21 01:21:10;;;;;;;21.73;13.25;;;;;;;;;;5010152;28;20028;-68
2023/04/21 01:23:35;;;;;;;19.35;11.82;;;;;;;;;;5016420;28;20075;-68
2023/04/21 01:26:00;;;;;;;21.70;14.50;;;;;;;;;;5019476;28;20049;-68
2023/04/21 01:28:26;;;;;;;18.15;12.35;;;;;;;;;;5006729;28;20034;-68
2023/04/21 01:30:52;;;;;;;18.25;13.65;;;;;;;;;;5006224;28;20455;-68
2023/04/21 01:33:18;;;;;;;21.75;13.40;;;;;;;;;;5009802;28;20034;-68
2023/04/21 01:35:44;;;;;;;23.13;13.98;;;;;;;;;;5023099;28;20037;-68
2023/04/21 01:38:09;;;;;;;23.05;14.10;;;;;;;;;;5012729;28;20034;-68
2023/04/21 01:40:36;;;;;;;24.38;15.50;;;;;;;;;;5011692;28;20028;-68
2023/04/21 01:43:02;;;;;;;24.08;14.93;;;;;;;;;;5009658;28;20513;-68
2023/04/21 01:45:29;;;;;;;19.63;13.77;;;;;;;;;;5013142;28;20037;-68
2023/04/21 01:47:54;;;;;;;23.50;14.85;;;;;;;;;;5020103;28;20022;-68
2023/04/21 01:50:19;;;;;;;22.70;13.30;;;;;;;;;;5011082;28;20018;-68
2023/04/21 01:52:45;;;;;;;18.25;11.07;;;;;;;;;;5009677;28;20021;-68
2023/04/21 01:55:10;;;;;;;22.25;13.38;;;;;;;;;;5008874;28;20021;-68
2023/04/21 01:57:35;;;;;;;20.90;13.48;;;;;;;;;;5025736;28;20049;-68
2023/04/21 02:00:02;;;;;;;23.40;14.88;;;;;;;;;;5017957;28;20017;-68
2023/04/21 02:02:28;;;;;;;23.20;13.88;;;;;;;;;;5017285;28;20026;-68
2023/04/21 02:04:54;;;;;;;22.95;14.32;;;;;;;;;;5014782;28;20037;-68
2023/04/21 02:07:19;;;;;;;23.38;14.15;;;;;;;;;;5013015;28;20056;-68
2023/04/21 02:09:45;;;;;;;22.08;14.60;;;;;;;;;;5020439;28;20048;-68
2023/04/21 02:12:10;;;;;;;23.52;12.75;;;;;;;;;;5013424;28;20014;-68
2023/04/21 02:14:36;;;;;;;24.38;14.40;;;;;;;;;;5014547;28;20389;-68
2023/04/21 02:17:02;;;;;;;24.40;15.65;;;;;;;;;;5009323;28;20434;-68
2023/04/21 02:19:28;;;;;;;22.13;14.95;;;;;;;;;;5024224;28;20097;-68
2023/04/21 02:21:53;;;;;;;21.60;14.20;;;;;;;;;;5018323;28;20108;-68
2023/04/21 02:24:19;;;;;;;23.15;16.05;;;;;;;;;;5010877;28;20029;-68
2023/04/21 02:26:44;;;;;;;24.80;14.32;;;;;;;;;;5012483;28;21105;-68
2023/04/21 02:29:09;;;;;;;24.48;15.43;;;;;;;;;;5011677;28;20030;-68
2023/04/21 02:31:35;;;;;;;21.73;14.07;;;;;;;;;;5023923;28;20018;-68
2023/04/21 02:34:00;;;;;;;27.02;15.73;;;;;;;;;;5008799;28;20367;-68
2023/04/21 02:36:26;;;;;;;22.92;14.85;;;;;;;;;;5011101;28;20398;-68
2023/04/21 02:38:51;;;;;;;25.85;15.90;;;;;;;;;;5013509;28;20056;-68
2023/04/21 02:41:16;;;;;;;20.98;13.48;;;;;;;;;;5016796;28;20022;-68
2023/04/21 02:43:42;;;;;;;23.67;15.88;;;;;;;;;;5021014;28;20061;-68
2023/04/21 02:46:08;;;;;;;22.02;14.50;;;;;;;;;;5009899;28;20026;-68
2023/04/21 02:48:34;;;;;;;22.88;13.88;;;;;;;;;;5011811;28;20053;-68
2023/04/21 02:50:59;;;;;;;25.05;14.95;;;;;;;;;;5009651;28;20014;-68
2023/04/21 02:53:25;;;;;;;24.45;15.63;;;;;;;;;;5023032;28;20515;-68
2023/04/21 02:55:51;;;;;;;22.80;14.70;;;;;;;;;;5012393;28;20405;-68
2023/04/21 02:58:16;;;;;;;23.77;15.00;;;;;;;;;;5010412;28;20112;-68
2023/04/21 03:00:41;;;;;;;21.95;13.68;;;;;;;;;;5008987;28;20022;-68
2023/04/21 03:03:07;;;;;;;27.00;15.80;;;;;;;;;;5019822;28;20051;-68
2023/04/21 03:05:32;;;;;;;24.13;14.68;;;;;;;;;;5014381;28;20112;-68
2023/04/21 03:07:57;;;;;;;25.10;15.85;;;;;;;;;;5018561;28;20083;-68
2023/04/21 03:10:23;;;;;;;29.17;15.63;;;;;;;;;;5011446;28;20033;-68
2023/04/21 03:12:48;;;;;;;26.88;16.20;;;;;;;;;;5015624;28;20022;-68
2023/04/21 03:15:14;;;;;;;21.60;15.30;;;;;;;;;;5026650;28;20079;-68
2023/04/21 03:17:40;;;;;;;26.30;16.23;;;;;;;;;;5011924;28;20026;-67
2023/04/21 03:20:07;;;;;;;25.00;14.82;;;;;;;;;;4993435;28;20026;-68
2023/04/21 03:22:37;;;;;;;24.95;15.40;;;;;;;;;;5010916;28;20471;-67
2023/04/21 03:25:03;;;;;;;26.00;16.13;;;;;;;;;;5013153;28;20029;-67
2023/04/21 03:27:29;;;;;;;19.60;13.77;;;;;;;;;;5016662;28;20029;-68
2023/04/21 03:29:54;;;;;;;26.95;16.23;;;;;;;;;;5019530;28;20482;-68
2023/04/21 03:32:20;;;;;;;18.52;13.60;;;;;;;;;;5018491;28;20032;-68
2023/04/21 03:34:45;;;;;;;20.58;14.30;;;;;;;;;;5016560;28;20034;-68
2023/04/21 03:37:10;;;;;;;25.55;15.30;;;;;;;;;;5021330;28;20100;-68
2023/04/21 03:39:36;;;;;;;25.30;16.45;;;;;;;;;;5019476;28;20060;-68
2023/04/21 03:42:01;;;;;;;27.33;16.40;;;;;;;;;;5008694;28;20049;-68
2023/04/21 03:44:27;;;;;;;27.20;16.35;;;;;;;;;;5007844;28;20470;-68
2023/04/21 03:46:54;;;;;;;25.38;16.23;;;;;;;;;;5007469;28;20018;-68
2023/04/21 03:49:19;;;;;;;25.20;16.52;;;;;;;;;;5010392;28;20133;-68
2023/04/21 03:51:45;;;;;;;24.17;14.90;;;;;;;;;;5013220;28;20093;-68
2023/04/21 03:54:10;;;;;;;28.85;17.90;;;;;;;;;;5013810;28;20055;-68
2023/04/21 03:56:36;;;;;;;25.85;15.07;;;;;;;;;;5009434;28;20321;-68
2023/04/21 03:59:01;;;;;;;26.40;17.95;;;;;;;;;;5011893;28;20032;-68
2023/04/21 04:01:26;;;;;;;20.65;14.35;;;;;;;;;;5020024;28;20108;-68
2023/04/21 04:03:52;;;;;;;21.33;15.48;;;;;;;;;;5007590;28;20532;-68
2023/04/21 04:06:17;;;;;;;24.55;16.77;;;;;;;;;;5007955;28;20028;-68
2023/04/21 04:08:42;;;;;;;13.95;8.65;;;;;;;;;;5008216;28;20030;-68
2023/04/21 04:11:08;;;;;;;28.92;16.83;;;;;;;;;;5014205;28;20541;-68
2023/04/21 04:13:33;;;;;;;24.13;15.65;;;;;;;;;;5019438;28;20041;-68
2023/04/21 04:15:59;;;;;;;24.75;14.20;;;;;;;;;;5007293;28;20026;-68
2023/04/21 04:18:24;;;;;;;22.48;15.52;;;;;;;;;;5017452;28;20026;-68
2023/04/21 04:20:49;;;;;;;24.65;14.30;;;;;;;;;;5012575;28;20034;-68
2023/04/21 04:23:15;;;;;;;25.38;14.50;;;;;;;;;;5022153;28;20107;-68
2023/04/21 04:25:41;;;;;;;16.75;9.65;;;;;;;;;;5016319;28;20028;-67
2023/04/21 04:28:08;;;;;;;21.83;14.38;;;;;;;;;;5006972;28;20030;-67
2023/04/21 04:30:34;;;;;;;27.88;18.95;;;;;;;;;;5012608;28;20180;-69
2023/04/21 04:33:00;;;;;;;23.65;14.70;;;;;;;;;;5020451;28;20127;-69
2023/04/21 04:35:25;;;;;;;24.52;15.32;;;;;;;;;;5011804;28;20026;-68
2023/04/21 04:37:51;;;;;;;26.13;15.10;;;;;;;;;;5011656;28;20044;-67
2023/04/21 04:40:16;;;;;;;24.35;14.93;;;;;;;;;;5007508;28;20030;-68
2023/04/21 04:42:44;;;;;;;26.70;14.70;;;;;;;;;;5010524;28;20120;-68
2023/04/21 04:45:10;;;;;;;20.45;13.32;;;;;;;;;;5021853;28;20563;-67
2023/04/21 04:47:36;;;;;;;22.25;14.00;;;;;;;;;;5004869;28;20021;-67
2023/04/21 04:50:02;;;;;;;24.67;14.48;;;;;;;;;;5006179;28;20033;-67
2023/04/21 04:52:27;;;;;;;20.15;11.95;;;;;;;;;;5005597;28;20029;-68
2023/04/21 04:54:53;;;;;;;17.27;10.95;;;;;;;;;;5015861;28;20526;-67
2023/04/21 04:57:18;;;;;;;24.83;14.32;;;;;;;;;;5022356;28;20111;-67
2023/04/21 04:59:43;;;;;;;20.95;13.80;;;;;;;;;;5008896;28;20474;-67
2023/04/21 05:02:09;;;;;;;20.83;12.73;;;;;;;;;;5008956;28;20048;-67
2023/04/21 05:04:35;;;;;;;25.85;15.13;;;;;;;;;;5011548;28;20025;-67
2023/04/21 05:07:00;;;;;;;23.55;15.25;;;;;;;;;;5020651;28;20032;-67
2023/04/21 05:09:25;;;;;;;14.38;8.52;;;;;;;;;;5015324;28;20385;-69
2023/04/21 05:11:51;;;;;;;23.98;13.45;;;;;;;;;;5011326;28;20029;-69
2023/04/21 05:14:16;;;;;;;25.10;14.48;;;;;;;;;;5009159;28;20044;-69
2023/04/21 05:16:45;;;;;;;25.02;15.43;;;;;;;;;;5016806;28;20021;-69
2023/04/21 05:19:10;;;;;;;24.35;14.45;;;;;;;;;;5023219;28;20033;-69
2023/04/21 05:21:35;;;;;;;20.73;12.60;;;;;;;;;;5008720;28;20026;-69
2023/04/21 05:24:01;;;;;;;20.02;12.68;;;;;;;;;;5007765;28;20045;-69
2023/04/21 05:26:28;;;;;;;23.95;12.82;;;;;;;;;;5013568;28;20033;-69
2023/04/21 05:28:55;;;;;;;23.08;15.77;;;;;;;;;;5021541;28;20468;-69
2023/04/21 05:31:20;;;;;;;22.30;14.05;;;;;;;;;;5015126;28;20036;-69
2023/04/21 05:33:45;;;;;;;23.50;13.63;;;;;;;;;;5012490;28;20034;-68
2023/04/21 05:36:11;;;;;;;29.02;14.80;;;;;;;;;;5016126;28;20052;-68
2023/04/21 05:38:37;;;;;;;15.80;10.25;;;;;;;;;;5012512;28;20413;-69
2023/04/21 05:41:03;;;;;;;18.15;11.40;;;;;;;;;;5018909;28;20018;-69
2023/04/21 05:43:28;;;;;;;24.13;13.85;;;;;;;;;;5011976;28;20029;-68
2023/04/21 05:45:53;;;;;;;18.13;11.73;;;;;;;;;;4998184;28;20123;-68
2023/04/21 05:48:19;;;;;;;20.58;13.88;;;;;;;;;;5014068;28;20079;-68
2023/04/21 05:50:44;;;;;;;22.50;15.10;;;;;;;;;;5017390;28;20033;-68
2023/04/21 05:53:10;;;;;;;21.48;14.00;;;;;;;;;;5016673;28;20022;-68
2023/04/21 05:55:36;;;;;;;21.25;12.07;;;;;;;;;;5012052;28;20490;-68
2023/04/21 05:58:02;;;;;;;19.55;11.75;;;;;;;;;;5010671;28;20391;-68
2023/04/21 06:00:27;;;;;;;25.83;14.50;;;;;;;;;;5012498;28;20084;-68
2023/04/21 06:02:52;;;;;;;17.40;11.00;;;;;;;;;;5021263;28;20029;-68
2023/04/21 06:05:18;;;;;;;26.02;13.00;;;;;;;;;;5008932;28;20029;-68
2023/04/21 06:07:43;;;;;;;10.07;6.22;;;;;;;;;;5013244;28;20121;-68
2023/04/21 06:10:10;;;;;;;19.40;13.18;;;;;;;;;;5008590;28;20022;-68
2023/04/21 06:12:35;;;;;;;17.30;10.45;;;;;;;;;;5023353;28;20029;-68
2023/04/21 06:15:01;;;;;;;14.13;10.00;;;;;;;;;;5018963;28;20493;-68
2023/04/21 06:17:26;;;;;;;19.65;12.68;;;;;;;;;;5012682;28;20040;-68
2023/04/21 06:19:52;;;;;;;23.20;14.10;;;;;;;;;;5010759;28;20030;-68
2023/04/21 06:22:24;;;;;;;20.67;13.07;;;;;;;;;;5019276;28;20550;-67
2023/04/21 06:24:49;;;;;;;19.45;13.10;;;;;;;;;;5023313;28;20036;-68
2023/04/21 06:27:15;;;;;;;21.13;12.50;;;;;;;;;;5009843;28;20052;-68
2023/04/21 06:29:44;;;;;;;10.52;6.70;;;;;;;;;;5009565;28;20029;-68
2023/04/21 06:32:10;;;;;;;15.27;9.02;;;;;;;;;;5008521;28;20486;-68
2023/04/21 06:34:35;;;;;;;22.45;14.20;;;;;;;;;;5023011;28;20021;-68
2023/04/21 06:37:01;;;;;;;19.70;12.27;;;;;;;;;;5008915;28;20107;-68
2023/04/21 06:39:26;;;;;;;15.80;10.00;;;;;;;;;;5018076;28;20040;-68
2023/04/21 06:41:52;;;;;;;17.02;12.02;;;;;;;;;;5010375;28;20036;-68
2023/04/21 06:44:17;;;;;;;18.90;12.27;;;;;;;;;;5015593;28;20025;-68
2023/04/21 06:46:43;;;;;;;19.02;12.48;;;;;;;;;;5019336;28;20401;-68
2023/04/21 06:49:08;;;;;;;19.55;12.60;;;;;;;;;;5011914;28;20038;-68
2023/04/21 06:51:34;;;;;;;18.55;12.65;;;;;;;;;;5015527;28;20021;-68
2023/04/21 06:54:00;;;;;;;20.58;12.85;;;;;;;;;;5011826;28;20475;-68
2023/04/21 06:56:29;;;;;;;13.48;9.15;;;;;;;;;;5022412;28;20134;-68
2023/04/21 06:58:55;;;;;;;17.50;11.57;;;;;;;;;;5018384;28;20033;-68
2023/04/21 07:01:23;;;;;;;18.27;11.32;;;;;;;;;;5008468;28;20034;-68
2023/04/21 07:03:48;;;;;;;18.85;12.13;;;;;;;;;;5010850;28;20547;-68
2023/04/21 07:06:14;;;;;;;15.18;7.80;;;;;;;;;;5009967;28;20033;-68
2023/04/21 07:08:40;;;;;;;21.38;12.98;;;;;;;;;;5008765;28;20035;-69
2023/04/21 07:11:05;;;;;;;19.45;12.02;;;;;;;;;;5003554;28;20032;-69
2023/04/21 07:13:31;;;;;;;21.63;12.32;;;;;;;;;;5006641;28;20482;-68
2023/04/21 07:15:56;;;;;;;19.55;11.27;;;;;;;;;;5008923;28;20053;-68
2023/04/21 07:18:21;;;;;;;16.80;10.77;;;;;;;;;;5009279;28;20029;-68
2023/04/21 07:20:47;;;;;;;23.23;11.38;;;;;;;;;;5012859;28;20060;-68
2023/04/21 07:23:12;;;;;;;12.60;7.65;;;;;;;;;;5009407;28;20048;-68
2023/04/21 07:25:37;;;;;;;13.88;10.27;;;;;;;;;;5011260;28;20037;-68
2023/04/21 07:28:03;;;;;;;17.67;11.10;;;;;;;;;;5001546;28;20402;-68
2023/04/21 07:30:29;;;;;;;19.63;11.20;;;;;;;;;;5013844;28;20026;-68
2023/04/21 07:32:55;;;;;;;12.73;6.57;;;;;;;;;;5006371;28;20025;-68
2023/04/21 07:35:20;;;;;;;14.13;8.32;;;;;;;;;;5007063;28;20030;-68
2023/04/21 07:37:46;;;;;;;14.88;10.57;;;;;;;;;;5007853;28;20025;-68
2023/04/21 07:40:11;;;;;;;13.77;10.30;;;;;;;;;;5008489;28;20045;-68
2023/04/21 07:42:37;;;;;;;18.40;11.05;;;;;;;;;;5008919;28;20033;-68
2023/04/21 07:45:03;;;;;;;16.50;10.02;;;;;;;;;;5004747;28;20025;-68
2023/04/21 07:47:29;;;;;;;8.68;6.55;;;;;;;;;;5007069;28;20028;-68
2023/04/21 07:49:54;;;;;;;12.90;9.63;;;;;;;;;;5010379;28;20069;-68
2023/04/21 07:52:20;;;;;;;12.43;8.80;;;;;;;;;;5008341;28;20083;-68
2023/04/21 07:54:45;;;;;;;13.13;8.45;;;;;;;;;;5010131;28;20022;-68
2023/04/21 07:57:11;;;;;;;16.05;10.50;;;;;;;;;;5006570;28;20541;-68
2023/04/21 07:59:36;;;;;;;17.65;9.98;;;;;;;;;;5010563;28;20017;-68
2023/04/21 08:02:02;;;;;;;12.63;7.28;;;;;;;;;;5013108;28;20030;-68
2023/04/21 08:04:27;;;;;;;11.50;8.02;;;;;;;;;;5010083;28;20029;-68
2023/04/21 08:06:52;;;;;;;16.50;8.45;;;;;;;;;;5009065;28;20035;-68
2023/04/21 08:09:18;;;;;;;12.98;8.20;;;;;;;;;;5001551;28;20494;-68
2023/04/21 08:11:43;;;;;;;12.75;8.48;;;;;;;;;;5013523;28;20057;-68
2023/04/21 08:14:10;;;;;;;9.15;5.72;;;;;;;;;;5014949;28;20029;-68
2023/04/21 08:16:37;;;;;;;12.02;7.32;;;;;;;;;;5012049;28;20068;-68
2023/04/21 08:19:02;;;;;;;8.30;5.57;;;;;;;;;;5005739;28;20050;-68
2023/04/21 08:21:28;;;;;;;13.35;7.43;;;;;;;;;;5009721;28;20052;-68
2023/04/21 08:23:54;;;;;;;11.23;6.63;;;;;;;;;;5013516;28;20029;-68
2023/04/21 08:26:21;;;;;;;12.27;7.30;;;;;;;;;;5016463;28;20082;-68
2023/04/21 08:28:50;;;;;;;12.23;7.13;;;;;;;;;;5007991;28;20084;-68
2023/04/21 08:31:16;;;;;;;11.82;6.90;;;;;;;;;;5006653;28;20029;-68
2023/04/21 08:33:42;;;;;;;11.27;6.97;;;;;;;;;;5008983;28;20036;-68
2023/04/21 08:36:07;;;;;;;10.57;6.70;;;;;;;;;;5014522;28;20033;-68
2023/04/21 08:38:34;;;;;;;9.65;5.97;;;;;;;;;;5003645;28;20034;-68
2023/04/21 08:40:59;;;;;;;10.68;5.65;;;;;;;;;;4994291;28;20418;-68
2023/04/21 08:43:25;;;;;;;10.68;6.05;;;;;;;;;;5011320;28;20028;-68
2023/04/21 08:45:53;;;;;;;9.00;5.70;;;;;;;;;;5000906;28;20026;-69
2023/04/21 08:48:21;;;;;;;9.20;5.68;;;;;;;;;;5014259;28;20026;-68
2023/04/21 08:50:48;;;;;;;7.95;5.78;;;;;;;;;;5008245;28;20030;-68
2023/04/21 08:53:15;;;;;;;7.68;3.85;;;;;;;;;;5012818;28;20140;-68
2023/04/21 08:55:41;;;;;;;8.02;5.63;;;;;;;;;;5008735;28;20030;-68
2023/04/21 08:58:08;;;;;;;12.52;4.95;;;;;;;;;;5013644;28;20052;-68
2023/04/21 09:00:36;;;;;;;10.35;4.63;;;;;;;;;;5018027;28;20029;-68
2023/04/21 09:03:03;;;;;;;6.60;4.40;;;;;;;;;;5013268;28;20022;-68
2023/04/21 09:05:31;;;;;;;9.25;5.03;;;;;;;;;;5009152;28;20034;-68
2023/04/21 09:08:17;;;;;;;5.85;3.92;;;;;;;;;;5010153;28;20029;-68
2023/04/21 09:10:51;;;;;;;11.63;5.47;;;;;;;;;;5015391;28;20742;-68
2023/04/21 09:13:17;;;;;;;8.88;5.82;;;;;;;;;;5013356;28;20108;-68
2023/04/21 09:15:45;;;;;;;10.65;5.80;;;;;;;;;;5008718;28;20057;-68
2023/04/21 09:18:15;;;;;;;10.13;6.05;;;;;;;;;;5007164;28;20018;-68
2023/04/21 09:20:43;;;;;;;8.10;5.77;;;;;;;;;;5019437;28;20022;-68
2023/04/21 09:23:09;;;;;;;8.50;5.80;;;;;;;;;;5013173;28;20037;-68
2023/04/21 09:25:38;;;;;;;11.48;7.00;;;;;;;;;;5014300;28;20039;-68
2023/04/21 09:28:07;;;;;;;10.52;6.05;;;;;;;;;;5006490;28;20034;-68
2023/04/21 09:30:35;;;;;;;8.57;5.43;;;;;;;;;;5014707;28;21011;-68
2023/04/21 09:33:00;;;;;;;9.80;7.25;;;;;;;;;;5011277;28;20049;-68
2023/04/21 09:35:32;;;;;;;9.30;5.70;;;;;;;;;;5012112;28;20590;-68
2023/04/21 09:38:00;;;;;;;6.60;4.40;;;;;;;;;;5007214;28;20030;-68
2023/04/21 09:40:25;;;;;;;12.40;7.07;;;;;;;;;;5013146;28;20083;-69
2023/04/21 09:42:51;;;;;;;9.98;6.97;;;;;;;;;;5015935;28;20025;-68
2023/04/21 09:45:17;;;;;;;11.30;5.32;;;;;;;;;;5009469;28;20026;-68
2023/04/21 09:47:44;;;;;;;8.93;5.35;;;;;;;;;;5006106;28;20135;-68
2023/04/21 09:50:14;;;;;;;9.77;5.45;;;;;;;;;;5008636;28;20029;-68
2023/04/21 09:52:43;;;;;;;11.98;6.28;;;;;;;;;;5018684;28;20018;-68
2023/04/21 09:55:12;;;;;;;6.78;4.15;;;;;;;;;;5009894;28;20053;-68
2023/04/21 09:57:40;;;;;;;12.18;6.28;;;;;;;;;;5004067;28;20053;-68
2023/04/21 10:00:08;;;;;;;11.02;6.38;;;;;;;;;;5006109;28;20036;-68
2023/04/21 10:02:35;;;;;;;8.88;5.63;;;;;;;;;;5012743;28;20026;-67
2023/04/21 10:05:05;;;;;;;10.98;5.80;;;;;;;;;;5013998;28;20045;-67
2023/04/21 10:07:30;;;;;;;6.60;4.68;;;;;;;;;;5006437;28;20018;-68
2023/04/21 10:09:58;;;;;;;37.92;7.70;;;;;;;;;;5006367;28;20553;-68
2023/04/21 10:12:25;;;;;;;7.90;5.35;;;;;;;;;;5011005;28;20069;-68
2023/04/21 10:14:52;;;;;;;5.95;3.40;;;;;;;;;;5012943;28;20050;-68
2023/04/21 10:17:21;;;;;;;7.38;4.03;;;;;;;;;;5008432;28;20037;-69
2023/04/21 10:19:57;;;;;;;10.98;5.10;;;;;;;;;;5007809;28;20032;-68
2023/04/21 10:22:30;;;;;;;10.48;5.10;;;;;;;;;;4989572;28;20022;-68
2023/04/21 10:24:57;;;;;;;12.43;5.10;;;;;;;;;;5010031;28;20528;-68
2023/04/21 10:27:44;;;;;;;10.40;5.38;;;;;;;;;;5012574;28;20441;-68
2023/04/21 10:30:19;;;;;;;6.82;3.90;;;;;;;;;;5004097;28;20498;-68
2023/04/21 10:32:45;;;;;;;9.40;4.80;;;;;;;;;;5005935;28;20049;-69
2023/04/21 10:35:16;;;;;;;6.80;4.63;;;;;;;;;;5009649;28;20091;-69
2023/04/21 10:37:42;;;;;;;8.90;4.60;;;;;;;;;;5012316;28;20036;-69
2023/04/21 10:40:29;;;;;;;9.98;4.60;;;;;;;;;;5009437;28;20502;-68
2023/04/21 10:42:55;;;;;;;10.48;4.63;;;;;;;;;;5008223;28;20101;-68
2023/04/21 10:45:24;;;;;;;11.05;4.72;;;;;;;;;;5009659;28;20190;-68
2023/04/21 10:47:51;;;;;;;6.55;4.35;;;;;;;;;;5010265;28;20108;-68
2023/04/21 10:50:26;;;;;;;9.35;5.70;;;;;;;;;;5008210;28;20061;-69
2023/04/21 10:52:53;;;;;;;8.93;5.03;;;;;;;;;;5007317;28;20025;-68
2023/04/21 10:55:20;;;;;;;9.18;4.03;;;;;;;;;;5006164;28;20660;-70
2023/04/21 10:57:46;;;;;;;7.97;4.00;;;;;;;;;;5006720;28;20439;-69
2023/04/21 11:00:18;;;;;;;6.22;4.20;;;;;;;;;;5008063;28;20132;-68
2023/04/21 11:02:52;;;;;;;11.02;4.60;;;;;;;;;;5004961;28;20073;-68
2023/04/21 11:05:18;;;;;;;6.47;3.83;;;;;;;;;;5001256;28;20037;-69
2023/04/21 11:07:43;;;;;;;7.97;4.13;;;;;;;;;;5008231;28;20030;-68
2023/04/21 11:10:10;;;;;;;6.28;4.50;;;;;;;;;;5018429;28;20553;-68
2023/04/21 11:12:39;;;;;;;10.13;4.13;;;;;;;;;;5008682;28;20112;-68
2023/04/21 11:15:07;;;;;;;7.28;4.60;;;;;;;;;;5006580;28;20441;-69
2023/04/21 11:17:33;;;;;;;4.88;3.28;;;;;;;;;;5007176;28;20030;-69
2023/04/21 11:20:00;;;;;;;7.28;4.47;;;;;;;;;;5010223;28;20025;-69
2023/04/21 11:22:26;;;;;;;9.23;4.60;;;;;;;;;;5009091;28;20029;-68
2023/04/21 11:24:55;;;;;;;5.30;3.58;;;;;;;;;;5009980;28;20061;-68
2023/04/21 11:27:22;;;;;;;8.88;4.72;;;;;;;;;;5009008;28;20033;-69
2023/04/21 11:29:50;;;;;;;5.65;4.47;;;;;;;;;;5003270;28;20572;-68
2023/04/21 11:32:16;;;;;;;7.85;4.47;;;;;;;;;;5011843;28;20033;-68
2023/04/21 11:34:42;;;;;;;7.03;3.95;;;;;;;;;;5003155;28;20026;-69
2023/04/21 11:37:34;;;;;;;6.85;4.10;;;;;;;;;;5011413;28;20476;-68
2023/04/21 11:40:00;;;;;;;6.63;3.63;;;;;;;;;;5005374;28;20034;-69
2023/04/21 11:42:26;;;;;;;7.20;3.70;;;;;;;;;;4995675;28;20117;-68
2023/04/21 11:44:55;;;;;;;5.72;3.88;;;;;;;;;;5009899;28;20036;-69
2023/04/21 11:47:24;;;;;;;8.65;4.82;;;;;;;;;;5006342;28;20080;-69
2023/04/21 11:49:55;;;;;;;6.75;4.53;;;;;;;;;;5002108;28;20391;-69
2023/04/21 11:52:38;;;;;;;5.22;3.50;;;;;;;;;;5006596;28;20502;-69
2023/04/21 11:55:17;;;;;;;4.63;3.10;;;;;;;;;;5009133;28;20050;-69
2023/04/21 11:57:42;;;;;;;5.57;3.80;;;;;;;;;;5004559;28;20538;-69
2023/04/21 12:00:13;;;;;;;5.53;3.20;;;;;;;;;;5005305;28;20026;-68
2023/04/21 12:02:39;;;;;;;4.82;3.40;;;;;;;;;;5016274;28;20029;-69
2023/04/21 12:05:09;;;;;;;6.30;3.45;;;;;;;;;;5016573;28;20374;-68
2023/04/21 12:07:37;;;;;;;7.55;3.90;;;;;;;;;;5007329;28;20026;-69
2023/04/21 12:10:14;;;;;;;5.38;3.40;;;;;;;;;;5006165;28;20034;-69
2023/04/21 12:12:41;;;;;;;6.05;3.67;;;;;;;;;;5005491;28;20148;-69
2023/04/21 12:15:08;;;;;;;5.18;3.22;;;;;;;;;;5011800;28;20017;-68
2023/04/21 12:17:46;;;;;;;16.48;4.25;;;;;;;;;;5007626;28;20033;-68
2023/04/21 12:20:15;;;;;;;5.43;3.30;;;;;;;;;;5005133;28;20041;-69
2023/04/21 12:22:40;;;;;;;5.72;3.42;;;;;;;;;;5010655;28;20079;-69
2023/04/21 12:25:06;;;;;;;5.90;3.97;;;;;;;;;;5007066;28;20374;-69
2023/04/21 12:27:31;;;;;;;5.75;3.67;;;;;;;;;;5015900;28;20029;-69
2023/04/21 12:29:57;;;;;;;5.70;2.60;;;;;;;;;;5009913;28;20029;-68
2023/04/21 12:32:23;;;;;;;4.97;3.08;;;;;;;;;;5005807;28;20018;-68
2023/04/21 12:34:48;;;;;;;5.07;3.67;;;;;;;;;;5005897;28;20160;-69
2023/04/21 12:37:14;;;;;;;6.63;3.80;;;;;;;;;;5011959;28;20116;-69
2023/04/21 12:39:40;;;;;;;4.93;3.03;;;;;;;;;;5007753;28;20108;-69
2023/04/21 12:42:05;;;;;;;5.68;3.13;;;;;;;;;;5006020;28;20014;-69
2023/04/21 12:44:31;;;;;;;4.75;3.80;;;;;;;;;;5008149;28;20030;-69
2023/04/21 12:46:57;;;;;;;5.40;3.15;;;;;;;;;;5005281;28;20103;-69
2023/04/21 12:49:23;;;;;;;7.13;4.50;;;;;;;;;;4996473;28;20033;-69
2023/04/21 12:51:49;;;;;;;5.28;3.25;;;;;;;;;;5008947;28;20156;-69
2023/04/21 12:54:14;;;;;;;6.35;4.15;;;;;;;;;;5007307;28;20133;-69
2023/04/21 12:56:41;;;;;;;5.85;3.03;;;;;;;;;;5007462;28;20389;-69
2023/04/21 12:59:08;;;;;;;4.93;3.50;;;;;;;;;;4991182;28;20504;-69
2023/04/21 13:01:34;;;;;;;7.15;3.60;;;;;;;;;;5014265;28;20112;-69
2023/04/21 13:03:59;;;;;;;5.72;3.03;;;;;;;;;;5005098;28;20062;-69
2023/04/21 13:06:25;;;;;;;4.95;2.97;;;;;;;;;;5004197;28;20139;-69
2023/04/21 13:08:50;;;;;;;5.95;3.88;;;;;;;;;;5003573;28;20072;-69
2023/04/21 13:11:15;;;;;;;5.38;3.40;;;;;;;;;;5017705;28;20021;-69
2023/04/21 13:13:41;;;;;;;4.47;2.85;;;;;;;;;;5005586;28;20510;-69
2023/04/21 13:16:06;;;;;;;5.78;3.95;;;;;;;;;;5005724;28;20026;-69
2023/04/21 13:18:33;;;;;;;5.85;3.97;;;;;;;;;;4998696;28;20021;-70
2023/04/21 13:21:00;;;;;;;8.80;3.97;;;;;;;;;;5011873;28;20500;-69
2023/04/21 13:23:25;;;;;;;5.68;4.70;;;;;;;;;;5013468;28;20030;-69
2023/04/21 13:25:51;;;;;;;7.10;3.00;;;;;;;;;;5012462;28;20509;-69
2023/04/21 13:28:18;;;;;;;5.55;3.83;;;;;;;;;;5008218;28;20034;-69
2023/04/21 13:30:43;;;;;;;5.97;3.60;;;;;;;;;;5013078;28;20034;-69
2023/04/21 13:33:10;;;;;;;5.00;3.50;;;;;;;;;;5019882;28;20021;-69
2023/04/21 13:35:35;;;;;;;6.38;3.67;;;;;;;;;;5010302;28;20056;-69
2023/04/21 13:38:00;;;;;;;6.47;3.05;;;;;;;;;;5007762;28;20061;-69
2023/04/21 13:40:26;;;;;;;5.47;3.50;;;;;;;;;;5008960;28;20382;-69
2023/04/21 13:42:51;;;;;;;5.82;3.80;;;;;;;;;;5020078;28;20395;-69
2023/04/21 13:45:17;;;;;;;3.53;2.65;;;;;;;;;;5017496;28;20045;-69
2023/04/21 13:47:42;;;;;;;6.30;4.10;;;;;;;;;;5011133;28;20100;-69
2023/04/21 13:50:08;;;;;;;5.10;2.70;;;;;;;;;;5007768;28;20033;-69
2023/04/21 13:52:35;;;;;;;4.13;3.53;;;;;;;;;;4995099;28;20105;-69
2023/04/21 13:55:01;;;;;;;3.95;2.55;;;;;;;;;;5021774;28;20398;-69
2023/04/21 13:57:26;;;;;;;4.50;2.97;;;;;;;;;;5015638;28;20018;-69
2023/04/21 13:59:53;;;;;;;5.15;3.35;;;;;;;;;;5003280;28;21118;-69
2023/04/21 14:02:20;;;;;;;6.95;3.42;;;;;;;;;;5009500;28;20486;-69
2023/04/21 14:04:45;;;;;;;4.10;2.90;;;;;;;;;;5016484;28;20112;-69
2023/04/21 14:07:13;;;;;;;4.65;3.42;;;;;;;;;;5014252;28;20708;-69
2023/04/21 14:09:38;;;;;;;5.20;3.10;;;;;;;;;;5007980;28;20068;-69
2023/04/21 14:12:04;;;;;;;6.43;3.70;;;;;;;;;;5010238;28;20021;-69
2023/04/21 14:14:29;;;;;;;4.38;3.00;;;;;;;;;;5014449;28;20025;-69
2023/04/21 14:16:55;;;;;;;4.32;3.15;;;;;;;;;;5019971;28;20478;-69
2023/04/21 14:19:21;;;;;;;4.38;3.13;;;;;;;;;;5011878;28;20105;-69
2023/04/21 14:21:46;;;;;;;5.07;3.72;;;;;;;;;;5011883;28;20028;-69
2023/04/21 14:24:11;;;;;;;4.38;3.33;;;;;;;;;;5009738;28;20434;-69